Terminal Aerodrome Forecast
Issued by NWS

Home | Current Version | Previous Version | Text Only | Print | Product List | Glossary On
Versions: 1 2 3 4 5 6 7 8 9 10 11 12 13 14 15 16 17 18 19 20
000
FTUS43 KICT 180534
TAFRSL
TAF
KRSL 180534Z 1806/1906 08007KT 1SM -SN OVC015
      TEMPO 1806/1809 3/4SM -SN OVC008
     FM181100 05005KT 1/2SM FG BKN007 OVC015
     FM181800 VRB03KT 5SM BR BKN015 OVC025
     FM182200 VRB05KT P6SM SCT050 SCT250=

USA.gov is the U.S. government's official web portal to all federal, state and local government web resources and services.